Time;durP1;ratioP1;P1;durP2;ratioP2;P2;SDS_P1;SDS_P2;PMS_P1;PMS_P2;Temp;Humidity;BMP_temperature;BMP_pressure;BME280_temperature;BME280_humidity;BME280_pressure;Samples;Min_cycle;Max_cycle;Signal;HPM_P1;HPM_P2
2023/09/19 00:00:20;;;;;;;6.93;1.90;;;16.20;99.90;;;;;;5069665;28;20476;-74
2023/09/19 00:02:59;;;;;;;11.20;1.92;;;16.20;99.90;;;;;;5063373;28;20025;-74
2023/09/19 00:05:27;;;;;;;10.00;2.08;;;16.20;99.90;;;;;;5069728;28;20052;-74
2023/09/19 00:07:54;;;;;;;10.50;2.10;;;16.30;99.90;;;;;;5069659;28;20070;-74
2023/09/19 00:10:24;;;;;;;10.48;2.03;;;16.30;99.90;;;;;;5069854;28;20039;-74
2023/09/19 00:12:51;;;;;;;14.25;2.47;;;16.30;99.90;;;;;;5069732;28;20013;-74
2023/09/19 00:15:17;;;;;;;11.45;2.00;;;16.30;99.90;;;;;;5069798;28;20021;-74
2023/09/19 00:17:43;;;;;;;9.07;2.20;;;16.30;99.90;;;;;;5069199;28;20044;-74
2023/09/19 00:20:12;;;;;;;9.45;1.90;;;16.30;99.90;;;;;;5069527;28;20256;-74
2023/09/19 00:22:44;;;;;;;9.50;1.85;;;16.30;99.90;;;;;;5069961;28;20020;-74
2023/09/19 00:25:11;;;;;;;8.43;2.25;;;16.30;99.90;;;;;;5069561;28;20020;-74
2023/09/19 00:27:42;;;;;;;16.08;2.28;;;16.30;99.90;;;;;;5069867;28;20028;-74
2023/09/19 00:30:15;;;;;;;8.63;2.05;;;16.30;99.90;;;;;;5056735;28;20040;-74
2023/09/19 00:32:42;;;;;;;10.00;2.08;;;16.30;99.90;;;;;;5069385;28;20041;-74
2023/09/19 00:35:09;;;;;;;9.32;2.00;;;16.30;99.90;;;;;;5069480;28;20090;-74
2023/09/19 00:37:35;;;;;;;12.93;2.55;;;16.30;99.90;;;;;;5069790;28;20036;-74
2023/09/19 00:40:02;;;;;;;10.23;1.98;;;16.30;99.90;;;;;;5069458;28;20024;-74
2023/09/19 00:42:28;;;;;;;15.88;2.33;;;16.30;99.90;;;;;;5071046;28;20017;-74
2023/09/19 00:44:54;;;;;;;11.63;2.40;;;16.30;99.90;;;;;;5070849;28;20021;-74
2023/09/19 00:47:20;;;;;;;11.88;2.25;;;16.30;99.90;;;;;;5069691;28;20029;-74
2023/09/19 00:49:52;;;;;;;13.30;2.28;;;16.30;99.90;;;;;;5069424;28;20032;-74
2023/09/19 00:52:22;;;;;;;14.48;2.95;;;16.30;99.90;;;;;;5069507;28;20426;-74
2023/09/19 00:54:48;;;;;;;13.73;2.22;;;16.20;99.90;;;;;;5069530;28;20036;-74
2023/09/19 00:57:19;;;;;;;14.88;2.65;;;16.30;99.90;;;;;;5069182;28;20024;-73
2023/09/19 00:59:45;;;;;;;9.82;2.15;;;16.30;99.90;;;;;;5069246;28;20476;-74
2023/09/19 01:02:14;;;;;;;13.45;2.90;;;16.30;99.90;;;;;;5069005;28;20037;-74
2023/09/19 01:04:40;;;;;;;12.68;2.85;;;16.20;99.90;;;;;;5069387;28;20049;-74
2023/09/19 01:07:07;;;;;;;11.27;2.65;;;16.20;99.90;;;;;;5068951;28;20517;-74
2023/09/19 01:09:34;;;;;;;16.63;2.80;;;16.20;99.90;;;;;;5069211;28;20024;-74
2023/09/19 01:12:05;;;;;;;10.88;2.40;;;16.20;99.90;;;;;;5069334;28;20035;-73
2023/09/19 01:14:49;;;;;;;13.60;2.65;;;16.20;99.90;;;;;;5066281;28;20070;-74
2023/09/19 01:17:17;;;;;;;11.18;2.42;;;16.20;99.90;;;;;;5067821;28;20118;-73
2023/09/19 01:20:14;;;;;;;16.35;2.50;;;16.20;99.90;;;;;;5069041;28;20383;-73
2023/09/19 01:23:12;;;;;;;11.80;2.40;;;16.20;99.90;;;;;;5068872;28;20072;-73
2023/09/19 01:26:08;;;;;;;14.15;2.65;;;16.20;99.90;;;;;;5084640;28;20037;-73
2023/09/19 01:29:01;;;;;;;14.38;2.55;;;16.10;99.90;;;;;;5069404;28;20043;-73
2023/09/19 01:31:33;;;;;;;13.25;2.45;;;16.10;99.90;;;;;;5072143;28;20240;-74
2023/09/19 01:34:01;;;;;;;16.83;2.72;;;16.10;99.90;;;;;;5072930;28;20069;-73
2023/09/19 01:36:35;;;;;;;12.50;2.50;;;16.10;99.90;;;;;;5072675;28;20020;-73
2023/09/19 01:39:10;;;;;;;22.43;2.90;;;16.10;99.90;;;;;;5072406;28;20487;-74
2023/09/19 01:42:22;;;;;;;16.10;2.43;;;16.10;99.90;;;;;;5072486;28;20263;-73
2023/09/19 01:44:47;;;;;;;17.13;2.60;;;16.00;99.90;;;;;;5068989;28;20715;-74
2023/09/19 01:47:26;;;;;;;16.90;2.63;;;16.00;99.90;;;;;;5068184;28;20044;-73
2023/09/19 01:50:18;;;;;;;15.48;2.70;;;16.00;99.90;;;;;;5071651;28;20020;-73
2023/09/19 01:52:51;;;;;;;18.45;3.20;;;16.00;99.90;;;;;;5072009;28;20016;-74
2023/09/19 01:55:17;;;;;;;12.77;2.50;;;16.00;99.90;;;;;;5072173;28;20432;-74
2023/09/19 01:57:54;;;;;;;15.20;2.47;;;15.90;99.90;;;;;;5071786;28;20012;-74
2023/09/19 02:00:23;;;;;;;14.90;2.85;;;15.90;99.90;;;;;;5072119;28;20025;-73
2023/09/19 02:02:49;;;;;;;16.50;2.92;;;15.80;99.90;;;;;;5072031;28;20051;-74
2023/09/19 02:05:27;;;;;;;15.73;2.35;;;15.80;99.90;;;;;;5071647;28;20044;-74
2023/09/19 02:07:53;;;;;;;15.35;2.75;;;15.80;99.90;;;;;;5067754;28;20025;-74
2023/09/19 02:10:19;;;;;;;18.33;2.35;;;15.80;99.90;;;;;;5071933;28;20063;-73
2023/09/19 02:12:45;;;;;;;13.98;2.55;;;15.70;99.90;;;;;;5071771;28;20047;-74
2023/09/19 02:15:11;;;;;;;12.73;2.30;;;15.80;99.90;;;;;;5071714;28;20482;-74
2023/09/19 02:17:37;;;;;;;14.85;2.40;;;15.70;99.90;;;;;;5071991;28;20382;-73
2023/09/19 02:20:10;;;;;;;13.68;2.80;;;15.70;99.90;;;;;;5071826;28;20096;-74
2023/09/19 02:22:36;;;;;;;13.02;2.53;;;15.70;99.90;;;;;;5072136;28;20457;-73
2023/09/19 02:25:05;;;;;;;14.20;2.10;;;15.60;99.90;;;;;;5071385;28;20047;-74
2023/09/19 02:27:31;;;;;;;18.88;3.05;;;15.60;99.90;;;;;;5071814;28;20025;-74
2023/09/19 02:29:56;;;;;;;11.65;2.22;;;15.60;99.90;;;;;;5071193;28;20035;-74
2023/09/19 02:32:23;;;;;;;12.32;2.33;;;15.60;99.90;;;;;;5071381;28;20103;-74
2023/09/19 02:34:48;;;;;;;9.52;2.22;;;15.60;99.90;;;;;;5071185;28;20043;-73
2023/09/19 02:37:16;;;;;;;13.70;2.38;;;15.60;99.90;;;;;;5071357;28;20020;-73
2023/09/19 02:39:42;;;;;;;17.70;2.35;;;15.50;99.90;;;;;;5071716;28;20020;-73
2023/09/19 02:42:07;;;;;;;14.40;2.65;;;15.60;99.90;;;;;;5071308;28;20012;-73
2023/09/19 02:44:33;;;;;;;9.40;2.25;;;15.60;99.90;;;;;;5071141;28;20100;-74
2023/09/19 02:46:59;;;;;;;15.80;2.47;;;15.60;99.90;;;;;;5071396;28;20356;-74
2023/09/19 02:49:25;;;;;;;9.23;2.25;;;15.60;99.90;;;;;;5071162;28;20099;-74
2023/09/19 02:51:51;;;;;;;9.63;2.05;;;15.60;99.90;;;;;;5070908;28;20017;-74
2023/09/19 02:54:17;;;;;;;11.85;2.10;;;15.60;99.90;;;;;;5069979;28;20075;-74
2023/09/19 02:56:43;;;;;;;12.07;2.15;;;15.70;99.90;;;;;;5061328;28;20500;-73
2023/09/19 02:59:10;;;;;;;12.35;2.25;;;15.70;99.90;;;;;;5065385;28;20025;-73
2023/09/19 03:01:37;;;;;;;11.48;2.17;;;15.80;99.90;;;;;;5071805;28;20024;-73
2023/09/19 03:04:03;;;;;;;9.70;1.83;;;15.80;99.90;;;;;;5070672;28;20020;-74
2023/09/19 03:06:30;;;;;;;14.95;2.30;;;15.90;99.90;;;;;;5071040;28;20025;-74
2023/09/19 03:08:56;;;;;;;12.50;1.90;;;15.90;99.90;;;;;;5070153;28;20020;-73
2023/09/19 03:11:22;;;;;;;8.75;2.05;;;16.00;99.90;;;;;;5070651;28;20075;-73
2023/09/19 03:13:55;;;;;;;11.20;1.98;;;16.00;99.90;;;;;;5070351;28;20017;-74
2023/09/19 03:16:25;;;;;;;11.20;1.80;;;16.00;99.90;;;;;;5070875;28;20059;-74
2023/09/19 03:18:51;;;;;;;11.38;2.20;;;16.10;99.90;;;;;;5066061;28;20015;-74
2023/09/19 03:21:17;;;;;;;11.52;2.00;;;16.10;99.90;;;;;;5069183;28;20023;-73
2023/09/19 03:23:45;;;;;;;12.65;2.33;;;16.10;99.90;;;;;;5070782;28;20465;-74
2023/09/19 03:26:16;;;;;;;9.90;2.25;;;16.10;99.90;;;;;;5071096;28;20063;-74
2023/09/19 03:28:43;;;;;;;10.43;2.53;;;16.10;99.90;;;;;;5070409;28;20021;-74
2023/09/19 03:31:09;;;;;;;14.63;2.80;;;16.10;99.90;;;;;;5070813;28;20095;-74
2023/09/19 03:33:35;;;;;;;15.25;3.05;;;16.10;99.90;;;;;;5070345;28;20531;-74
2023/09/19 03:36:04;;;;;;;11.48;2.90;;;16.10;99.90;;;;;;5071992;28;20104;-73
2023/09/19 03:38:31;;;;;;;9.98;2.65;;;16.10;99.90;;;;;;5072029;28;20028;-74
2023/09/19 03:40:56;;;;;;;8.00;2.30;;;16.10;99.90;;;;;;5072283;28;20517;-74
2023/09/19 03:43:22;;;;;;;14.45;2.40;;;16.10;99.90;;;;;;5072404;28;20051;-74
2023/09/19 03:45:48;;;;;;;10.40;2.42;;;16.10;99.90;;;;;;5070118;28;20025;-74
2023/09/19 03:48:14;;;;;;;10.25;1.92;;;16.10;99.90;;;;;;5070565;28;20155;-73
2023/09/19 03:50:40;;;;;;;14.48;2.70;;;16.10;99.90;;;;;;5070609;28;20400;-74
2023/09/19 03:53:08;;;;;;;12.38;1.90;;;16.10;99.90;;;;;;5069403;28;20024;-74
2023/09/19 03:55:35;;;;;;;16.65;2.28;;;16.10;99.90;;;;;;5069840;28;20028;-74
2023/09/19 03:58:02;;;;;;;12.85;2.10;;;16.00;99.90;;;;;;5070408;28;20017;-73
2023/09/19 04:00:29;;;;;;;13.30;2.42;;;16.00;99.90;;;;;;5070102;28;20463;-73
2023/09/19 04:02:56;;;;;;;10.07;2.28;;;16.00;99.90;;;;;;5070177;28;20043;-74
2023/09/19 04:05:22;;;;;;;14.57;2.35;;;16.10;99.90;;;;;;5069157;28;20055;-74
2023/09/19 04:07:48;;;;;;;10.57;2.28;;;16.10;99.90;;;;;;5070121;28;20021;-74
2023/09/19 04:10:14;;;;;;;12.70;2.30;;;16.00;99.90;;;;;;5068765;28;20502;-74
2023/09/19 04:12:40;;;;;;;11.50;2.22;;;16.00;99.90;;;;;;5070037;28;20098;-74
2023/09/19 04:15:07;;;;;;;17.10;2.83;;;15.90;99.90;;;;;;5068881;28;20482;-74
2023/09/19 04:17:33;;;;;;;12.20;2.30;;;15.80;99.90;;;;;;5062820;28;20036;-74
2023/09/19 04:19:59;;;;;;;15.98;3.03;;;15.80;99.90;;;;;;5069666;28;20574;-73
2023/09/19 04:22:25;;;;;;;12.65;2.35;;;15.80;99.90;;;;;;5070046;28;20052;-74
2023/09/19 04:24:51;;;;;;;16.83;2.50;;;15.70;99.90;;;;;;5069415;28;20656;-74
2023/09/19 04:27:18;;;;;;;15.82;2.58;;;15.70;99.90;;;;;;5069793;28;20032;-74
2023/09/19 04:29:44;;;;;;;12.25;2.58;;;15.60;99.90;;;;;;5069637;28;20467;-74
2023/09/19 04:32:10;;;;;;;12.90;2.35;;;15.60;99.90;;;;;;5069661;28;20017;-74
2023/09/19 04:34:36;;;;;;;11.50;2.47;;;15.60;99.90;;;;;;5069365;28;20021;-74
2023/09/19 04:37:01;;;;;;;7.88;1.70;;;15.60;99.90;;;;;;5069681;28;20505;-74
2023/09/19 04:39:28;;;;;;;12.02;2.25;;;15.60;99.90;;;;;;5067013;28;20029;-74
2023/09/19 04:41:54;;;;;;;11.23;2.15;;;15.60;99.90;;;;;;5067209;28;20009;-74
2023/09/19 04:44:20;;;;;;;8.77;1.85;;;15.60;99.90;;;;;;5069317;28;20059;-74
2023/09/19 04:46:46;;;;;;;9.50;1.63;;;15.60;99.90;;;;;;5069866;28;20039;-74
2023/09/19 04:49:13;;;;;;;10.98;2.25;;;15.60;99.90;;;;;;5069313;28;20430;-74
2023/09/19 04:51:40;;;;;;;11.77;1.95;;;15.60;99.90;;;;;;5069486;28;20481;-74
2023/09/19 04:54:06;;;;;;;8.77;2.13;;;15.70;99.90;;;;;;5069336;28;20020;-74
2023/09/19 04:56:32;;;;;;;10.75;1.90;;;15.70;99.90;;;;;;5069903;28;20028;-74
2023/09/19 04:58:58;;;;;;;13.70;1.98;;;15.80;99.90;;;;;;5068137;28;20476;-74
2023/09/19 05:01:24;;;;;;;17.75;2.90;;;15.80;99.90;;;;;;5058572;28;20024;-73
2023/09/19 05:03:52;;;;;;;15.75;2.72;;;15.80;99.90;;;;;;5065461;28;20032;-73
2023/09/19 05:06:20;;;;;;;12.60;2.20;;;15.80;99.90;;;;;;5072902;28;20044;-73
2023/09/19 05:08:50;;;;;;;9.95;2.13;;;15.90;99.90;;;;;;5073462;28;20020;-73
2023/09/19 05:11:21;;;;;;;12.45;2.50;;;15.90;99.90;;;;;;5070136;28;20021;-73
2023/09/19 05:13:47;;;;;;;13.73;2.60;;;15.90;99.90;;;;;;5071028;28;20059;-74
2023/09/19 05:16:13;;;;;;;18.48;2.60;;;15.90;99.90;;;;;;5073419;28;20052;-73
2023/09/19 05:18:39;;;;;;;12.95;2.63;;;15.90;99.90;;;;;;5074549;28;20017;-73
2023/09/19 05:21:05;;;;;;;14.10;2.65;;;15.80;99.90;;;;;;5073779;28;20035;-73
2023/09/19 05:23:31;;;;;;;15.25;2.97;;;15.80;99.90;;;;;;5074215;28;20017;-73
2023/09/19 05:25:59;;;;;;;14.25;2.42;;;15.80;99.90;;;;;;5072618;28;20040;-74
2023/09/19 05:28:26;;;;;;;14.52;2.75;;;15.70;99.90;;;;;;5072099;28;20031;-73
2023/09/19 05:30:53;;;;;;;16.67;2.97;;;15.70;99.90;;;;;;5071810;28;20025;-73
2023/09/19 05:33:19;;;;;;;14.27;2.67;;;15.70;99.90;;;;;;5072131;28;20032;-73
2023/09/19 05:35:46;;;;;;;17.40;2.70;;;15.70;99.90;;;;;;5071109;28;20025;-73
2023/09/19 05:38:13;;;;;;;12.88;2.65;;;15.70;99.90;;;;;;5072533;28;20032;-72
2023/09/19 05:40:42;;;;;;;16.55;2.53;;;15.60;99.90;;;;;;5071948;28;20024;-72
2023/09/19 05:43:08;;;;;;;15.32;3.15;;;15.60;99.90;;;;;;5071855;28;20037;-73
2023/09/19 05:45:34;;;;;;;14.48;2.85;;;15.60;99.90;;;;;;5060705;28;20041;-73
2023/09/19 05:48:11;;;;;;;13.88;2.58;;;15.60;99.90;;;;;;5071372;28;20025;-72
2023/09/19 05:50:38;;;;;;;16.58;2.70;;;15.60;99.90;;;;;;5069683;28;20020;-72
2023/09/19 05:53:06;;;;;;;14.98;3.00;;;15.60;99.90;;;;;;5071065;28;20047;-72
2023/09/19 05:55:32;;;;;;;14.18;2.60;;;15.60;99.90;;;;;;5070968;28;20028;-72
2023/09/19 05:57:58;;;;;;;17.55;3.08;;;15.60;99.90;;;;;;5071261;28;20021;-72
2023/09/19 06:00:27;;;;;;;16.33;2.70;;;15.60;99.90;;;;;;5070214;28;20043;-72
2023/09/19 06:02:57;;;;;;;14.57;2.90;;;15.60;99.90;;;;;;5064268;28;20028;-72
2023/09/19 06:05:24;;;;;;;18.63;3.22;;;15.60;99.90;;;;;;5069302;28;20461;-72
2023/09/19 06:07:50;;;;;;;22.08;3.33;;;15.70;99.90;;;;;;5070716;28;20036;-72
2023/09/19 06:10:17;;;;;;;14.38;2.95;;;15.70;99.90;;;;;;5070855;28;20017;-72
2023/09/19 06:12:46;;;;;;;18.42;3.25;;;15.70;99.90;;;;;;5070541;28;20028;-72
2023/09/19 06:15:18;;;;;;;18.25;3.08;;;15.70;99.90;;;;;;5066039;28;20043;-72
2023/09/19 06:17:48;;;;;;;18.00;3.78;;;15.70;99.90;;;;;;5070773;28;20023;-74
2023/09/19 06:20:14;;;;;;;18.30;3.17;;;15.70;99.90;;;;;;5071783;28;20019;-74
2023/09/19 06:22:42;;;;;;;22.52;3.50;;;15.70;99.90;;;;;;5063995;28;20135;-74
2023/09/19 06:25:11;;;;;;;16.02;3.22;;;15.70;99.90;;;;;;5070136;28;20021;-74
2023/09/19 06:27:44;;;;;;;18.23;3.20;;;15.70;99.90;;;;;;5070977;28;20039;-74
2023/09/19 06:30:17;;;;;;;18.98;3.30;;;15.70;99.90;;;;;;5071025;28;20052;-74
2023/09/19 06:32:43;;;;;;;18.85;3.13;;;15.70;99.90;;;;;;5073448;28;20037;-74
2023/09/19 06:35:11;;;;;;;19.73;3.20;;;15.70;99.90;;;;;;5070595;28;20096;-74
2023/09/19 06:37:40;;;;;;;17.17;3.05;;;15.70;99.90;;;;;;5066966;28;20419;-75
2023/09/19 06:40:14;;;;;;;16.60;3.08;;;15.80;99.90;;;;;;5071407;28;20020;-75
2023/09/19 06:42:45;;;;;;;13.80;3.10;;;15.70;99.90;;;;;;5060448;28;20020;-74
2023/09/19 06:45:13;;;;;;;18.08;2.95;;;15.70;99.90;;;;;;5069070;28;20103;-75
2023/09/19 06:47:39;;;;;;;19.00;3.22;;;15.70;99.90;;;;;;5061105;28;20115;-74
2023/09/19 06:50:06;;;;;;;16.23;3.10;;;15.80;99.90;;;;;;5068603;28;20047;-75
2023/09/19 06:52:32;;;;;;;18.25;3.17;;;15.80;99.90;;;;;;5071117;28;20021;-74
2023/09/19 06:54:58;;;;;;;20.52;3.10;;;15.80;99.90;;;;;;5071522;28;20020;-74
2023/09/19 06:57:24;;;;;;;16.50;2.92;;;15.90;99.90;;;;;;5070973;28;20021;-74
2023/09/19 06:59:50;;;;;;;16.98;2.95;;;15.90;99.90;;;;;;5071414;28;20375;-74
2023/09/19 07:02:15;;;;;;;15.82;2.95;;;15.90;99.90;;;;;;5070904;28;20024;-74
2023/09/19 07:04:41;;;;;;;25.13;3.78;;;15.90;99.90;;;;;;5064598;28;20056;-74
2023/09/19 07:07:08;;;;;;;14.98;3.40;;;15.90;99.90;;;;;;5070695;28;20064;-74
2023/09/19 07:09:34;;;;;;;20.20;3.17;;;15.90;99.90;;;;;;5071311;28;20027;-74
2023/09/19 07:12:00;;;;;;;19.50;3.35;;;15.90;99.90;;;;;;5070493;28;20017;-74
2023/09/19 07:14:26;;;;;;;20.63;3.58;;;15.90;99.90;;;;;;5071028;28;20017;-74
2023/09/19 07:16:52;;;;;;;20.65;3.25;;;15.90;99.90;;;;;;5065628;28;20427;-74
2023/09/19 07:19:18;;;;;;;21.33;3.33;;;15.90;99.90;;;;;;5071152;28;20025;-74
2023/09/19 07:21:43;;;;;;;16.00;3.67;;;16.00;99.90;;;;;;5070593;28;20162;-74
2023/09/19 07:24:09;;;;;;;18.23;3.08;;;16.00;99.90;;;;;;5070198;28;20124;-74
2023/09/19 07:26:35;;;;;;;18.10;3.60;;;16.00;99.90;;;;;;5070173;28;20109;-74
2023/09/19 07:29:03;;;;;;;15.43;3.17;;;16.10;99.90;;;;;;5070553;28;20157;-74
2023/09/19 07:31:29;;;;;;;20.35;3.33;;;16.10;99.90;;;;;;5070999;28;20444;-74
2023/09/19 07:33:55;;;;;;;21.83;3.40;;;16.10;99.90;;;;;;5070559;28;20020;-74
2023/09/19 07:36:20;;;;;;;21.15;3.50;;;16.10;99.90;;;;;;5070483;28;20017;-74
2023/09/19 07:38:48;;;;;;;17.88;3.38;;;16.10;99.90;;;;;;5070507;28;20459;-74
2023/09/19 07:41:13;;;;;;;19.35;3.40;;;16.20;99.90;;;;;;5085836;28;20017;-75
2023/09/19 07:43:40;;;;;;;18.52;3.20;;;16.20;99.90;;;;;;5055080;28;20047;-74
2023/09/19 07:46:11;;;;;;;21.48;3.15;;;16.20;99.90;;;;;;5069947;28;20032;-74
2023/09/19 07:48:38;;;;;;;18.10;3.22;;;16.30;99.90;;;;;;5070368;28;20043;-74
2023/09/19 07:51:08;;;;;;;19.52;3.67;;;16.30;99.90;;;;;;5070326;28;20020;-74
2023/09/19 07:53:35;;;;;;;22.35;3.67;;;16.40;99.90;;;;;;5068851;28;20107;-74
2023/09/19 07:56:09;;;;;;;20.75;4.05;;;16.40;99.90;;;;;;5070240;28;20055;-75
2023/09/19 07:58:37;;;;;;;16.67;3.38;;;16.40;99.90;;;;;;5069842;28;20507;-74
2023/09/19 08:01:07;;;;;;;21.52;3.38;;;16.40;99.90;;;;;;5070172;28;20025;-74
2023/09/19 08:03:34;;;;;;;18.92;3.00;;;16.50;99.90;;;;;;5070083;28;20026;-75
2023/09/19 08:06:00;;;;;;;19.50;3.40;;;16.60;99.90;;;;;;5070035;28;20053;-75
2023/09/19 08:08:27;;;;;;;17.70;3.55;;;16.60;99.90;;;;;;5069680;28;20024;-75
2023/09/19 08:10:55;;;;;;;19.90;3.72;;;16.70;99.90;;;;;;5070301;28;20055;-75
2023/09/19 08:13:24;;;;;;;20.20;4.50;;;16.80;99.90;;;;;;5069409;28;20047;-74
2023/09/19 08:15:53;;;;;;;20.17;3.53;;;16.80;99.90;;;;;;5070070;28;20032;-74
2023/09/19 08:18:20;;;;;;;21.58;3.50;;;16.90;99.90;;;;;;5069820;28;20020;-74
2023/09/19 08:20:50;;;;;;;17.38;3.30;;;17.00;99.90;;;;;;5064636;28;20431;-75
2023/09/19 08:23:18;;;;;;;18.08;3.45;;;17.10;99.90;;;;;;5066607;28;20017;-74
2023/09/19 08:25:43;;;;;;;19.75;3.10;;;17.20;99.90;;;;;;5069628;28;20016;-75
2023/09/19 08:28:12;;;;;;;17.20;3.35;;;17.20;99.90;;;;;;5069530;28;20017;-75
2023/09/19 08:30:40;;;;;;;18.10;3.30;;;17.20;99.90;;;;;;5056881;28;20519;-75
2023/09/19 08:33:07;;;;;;;22.80;3.83;;;17.20;99.90;;;;;;5069473;28;20024;-75
2023/09/19 08:35:33;;;;;;;13.10;2.92;;;17.20;99.90;;;;;;5069624;28;20027;-75
2023/09/19 08:38:03;;;;;;;22.27;3.30;;;17.20;99.90;;;;;;5069970;28;20025;-75
2023/09/19 08:40:33;;;;;;;16.17;3.10;;;17.20;99.90;;;;;;5073660;28;20379;-75
2023/09/19 08:43:00;;;;;;;20.52;3.42;;;17.20;99.90;;;;;;5075223;28;20107;-74
2023/09/19 08:45:29;;;;;;;21.60;3.70;;;17.20;99.90;;;;;;5073622;28;20017;-75
2023/09/19 08:48:11;;;;;;;17.20;3.13;;;17.20;99.90;;;;;;5072374;28;20032;-75
2023/09/19 08:50:51;;;;;;;20.40;3.45;;;17.10;99.90;;;;;;5075279;28;20465;-74
2023/09/19 08:53:27;;;;;;;24.27;3.80;;;17.10;99.90;;;;;;5064713;28;20154;-75
2023/09/19 08:55:56;;;;;;;25.25;3.47;;;17.10;99.90;;;;;;5074355;28;20610;-75
2023/09/19 08:58:27;;;;;;;19.83;3.10;;;17.10;99.90;;;;;;5072403;28;20024;-74
2023/09/19 09:00:54;;;;;;;21.38;3.85;;;17.10;99.90;;;;;;5074439;28;20123;-74
2023/09/19 09:03:22;;;;;;;18.90;4.00;;;17.10;99.90;;;;;;5074908;28;20051;-74
2023/09/19 09:05:50;;;;;;;25.27;3.47;;;17.10;99.90;;;;;;5074609;28;20052;-75
2023/09/19 09:08:17;;;;;;;22.77;3.85;;;17.20;99.90;;;;;;5074591;28;20028;-74
2023/09/19 09:10:44;;;;;;;28.50;4.38;;;17.30;99.90;;;;;;5074757;28;20016;-74
2023/09/19 09:13:14;;;;;;;24.35;3.53;;;17.50;99.90;;;;;;5074485;28;20029;-74
2023/09/19 09:15:41;;;;;;;19.98;3.28;;;17.70;99.90;;;;;;5074658;28;20062;-74
2023/09/19 09:18:06;;;;;;;23.15;3.67;;;17.80;99.90;;;;;;5074584;28;20017;-74
2023/09/19 09:20:32;;;;;;;21.05;3.38;;;17.80;99.90;;;;;;5074811;28;20023;-74
2023/09/19 09:23:03;;;;;;;14.50;3.03;;;17.80;99.90;;;;;;5074415;28;20033;-74
2023/09/19 09:25:54;;;;;;;20.58;3.88;;;17.80;99.90;;;;;;5072822;28;20049;-74
2023/09/19 09:28:27;;;;;;;18.83;3.40;;;17.90;99.90;;;;;;5077157;28;20029;-74
2023/09/19 09:30:54;;;;;;;19.38;3.22;;;18.00;99.90;;;;;;5074563;28;20046;-74
2023/09/19 09:33:21;;;;;;;20.95;3.53;;;18.00;99.90;;;;;;5074230;28;20013;-74
2023/09/19 09:36:00;;;;;;;23.00;3.30;;;18.10;99.90;;;;;;5074373;28;20020;-74
2023/09/19 09:38:48;;;;;;;14.25;3.50;;;18.20;99.90;;;;;;5068670;28;20376;-75
2023/09/19 09:41:27;;;;;;;15.88;3.20;;;18.20;99.90;;;;;;5070981;28;20525;-74
2023/09/19 09:43:53;;;;;;;17.67;3.45;;;18.30;99.90;;;;;;5071997;28;20391;-74
2023/09/19 09:51:59;;;;;;;11.75;2.88;;;18.40;99.90;;;;;;5071861;28;20387;-74
2023/09/19 09:54:38;;;;;;;19.13;3.10;;;18.50;99.90;;;;;;5072566;28;20024;-74
2023/09/19 09:57:23;;;;;;;18.48;3.17;;;18.50;99.90;;;;;;5072437;28;20348;-74
2023/09/19 09:59:53;;;;;;;15.27;3.15;;;18.50;99.90;;;;;;5083653;28;20407;-74
2023/09/19 10:02:25;;;;;;;21.70;3.20;;;18.50;99.90;;;;;;5070531;28;20371;-74
2023/09/19 10:04:59;;;;;;;16.33;2.70;;;18.50;99.90;;;;;;5055575;28;20511;-74
2023/09/19 10:07:32;;;;;;;11.35;2.28;;;18.50;99.90;;;;;;5071164;28;20044;-75
2023/09/19 10:10:04;;;;;;;15.40;2.63;;;18.50;99.90;;;;;;5070096;28;20021;-74
2023/09/19 10:12:32;;;;;;;13.70;2.50;;;18.50;99.90;;;;;;5064627;28;20070;-74
2023/09/19 10:15:02;;;;;;;9.80;2.55;;;18.50;99.90;;;;;;5070092;28;20028;-74
2023/09/19 10:17:31;;;;;;;16.52;2.95;;;18.50;99.90;;;;;;5071983;28;20028;-75
2023/09/19 10:19:58;;;;;;;19.83;3.08;;;18.50;99.90;;;;;;5068000;28;20020;-74
2023/09/19 10:22:26;;;;;;;17.10;3.38;;;18.60;99.90;;;;;;5071689;28;20511;-74
2023/09/19 10:24:55;;;;;;;13.70;2.47;;;18.60;99.90;;;;;;5071656;28;20020;-74
2023/09/19 10:27:22;;;;;;;20.05;3.10;;;18.60;99.90;;;;;;5071744;28;20078;-75
2023/09/19 10:29:53;;;;;;;13.40;2.88;;;18.70;99.90;;;;;;5071811;28;20439;-75
2023/09/19 10:32:21;;;;;;;13.20;2.40;;;18.80;99.90;;;;;;5061625;28;20391;-75
2023/09/19 10:34:50;;;;;;;12.50;2.50;;;18.80;99.90;;;;;;5071741;28;20024;-75
2023/09/19 10:37:22;;;;;;;11.10;2.53;;;18.90;99.90;;;;;;5071745;28;20085;-75
2023/09/19 10:39:49;;;;;;;12.30;2.40;;;18.90;99.90;;;;;;5071777;28;20025;-76
2023/09/19 10:42:19;;;;;;;12.25;2.15;;;18.90;99.90;;;;;;5071895;28;20024;-75
2023/09/19 10:44:53;;;;;;;17.05;2.35;;;18.90;99.90;;;;;;5071025;28;20446;-74
2023/09/19 10:47:20;;;;;;;10.57;2.38;;;18.90;99.90;;;;;;5071000;28;20118;-75
2023/09/19 10:49:46;;;;;;;10.48;2.22;;;18.90;99.90;;;;;;5071008;28;20238;-75
2023/09/19 10:52:19;;;;;;;15.40;2.58;;;19.00;99.90;;;;;;5065623;28;20020;-74
2023/09/19 10:54:54;;;;;;;9.60;2.05;;;19.10;99.90;;;;;;5071625;28;20107;-74
2023/09/19 10:57:23;;;;;;;15.48;2.38;;;19.20;99.90;;;;;;5071127;28;20036;-75
2023/09/19 11:00:27;;;;;;;11.55;2.28;;;19.30;99.90;;;;;;5067452;28;20073;-76
2023/09/19 11:03:14;;;;;;;9.60;2.28;;;19.40;99.90;;;;;;5067427;28;20020;-75
2023/09/19 11:05:41;;;;;;;9.60;2.10;;;19.40;99.90;;;;;;5071406;28;20125;-75
2023/09/19 11:08:08;;;;;;;10.45;2.00;;;19.30;99.90;;;;;;5070265;28;20424;-74
2023/09/19 11:10:54;;;;;;;11.25;2.03;;;19.20;99.90;;;;;;5068107;28;20024;-75
2023/09/19 11:13:37;;;;;;;9.10;2.00;;;19.20;99.90;;;;;;5071512;28;20075;-75
2023/09/19 11:16:04;;;;;;;10.82;2.30;;;19.20;99.90;;;;;;5065932;28;20066;-75
2023/09/19 11:18:42;;;;;;;7.68;2.03;;;19.10;99.90;;;;;;5086689;28;20017;-74
2023/09/19 11:21:31;;;;;;;11.15;2.17;;;19.10;99.90;;;;;;5071147;28;20020;-75
2023/09/19 11:24:15;;;;;;;10.80;2.40;;;19.10;99.90;;;;;;5061365;28;20115;-74
2023/09/19 11:26:47;;;;;;;7.95;1.90;;;19.10;99.90;;;;;;5070642;28;20103;-75
2023/09/19 11:29:31;;;;;;;10.27;2.10;;;19.10;99.90;;;;;;5071337;28;20017;-75
2023/09/19 11:31:59;;;;;;;8.95;2.17;;;19.10;99.90;;;;;;5070691;28;20165;-75
2023/09/19 11:34:41;;;;;;;8.88;1.92;;;19.10;99.90;;;;;;5071459;28;20024;-75
2023/09/19 11:37:11;;;;;;;11.75;1.80;;;19.10;99.90;;;;;;5070682;28;20059;-75
2023/09/19 11:39:41;;;;;;;9.07;2.22;;;19.10;99.90;;;;;;5070918;28;20626;-75
2023/09/19 11:43:00;;;;;;;6.93;1.83;;;19.00;99.90;;;;;;5070881;28;20361;-74
2023/09/19 11:45:49;;;;;;;11.35;2.22;;;19.00;99.90;;;;;;5071044;28;20020;-75
2023/09/19 11:48:18;;;;;;;11.75;1.88;;;18.90;99.90;;;;;;5071131;28;20044;-75
2023/09/19 11:50:47;;;;;;;12.40;2.00;;;18.90;99.90;;;;;;5069009;28;20055;-75
2023/09/19 11:53:13;;;;;;;11.98;2.00;;;18.90;99.90;;;;;;5063408;28;20020;-75
2023/09/19 11:55:43;;;;;;;6.57;1.90;;;18.90;99.90;;;;;;5071160;28;20020;-75
2023/09/19 11:58:09;;;;;;;10.05;1.88;;;18.90;99.90;;;;;;5070571;28;20426;-75
2023/09/19 12:00:38;;;;;;;11.40;1.98;;;19.10;99.90;;;;;;5069401;28;20034;-75
2023/09/19 12:03:11;;;;;;;9.27;1.95;;;19.20;99.90;;;;;;5062942;28;20041;-75
2023/09/19 12:05:37;;;;;;;11.93;2.38;;;19.30;99.90;;;;;;5066164;28;20055;-75
2023/09/19 12:08:08;;;;;;;13.15;1.88;;;19.40;99.90;;;;;;5085739;28;20037;-75
2023/09/19 12:10:57;;;;;;;12.32;2.10;;;19.60;99.90;;;;;;5063752;28;20032;-75
2023/09/19 12:13:23;;;;;;;8.32;2.00;;;19.60;99.90;;;;;;5069899;28;20399;-75
2023/09/19 12:15:49;;;;;;;8.02;1.70;;;19.60;99.90;;;;;;5069040;28;20029;-75
2023/09/19 12:18:30;;;;;;;7.47;1.77;;;19.60;99.90;;;;;;5069656;28;20047;-75
2023/09/19 12:20:57;;;;;;;9.13;1.98;;;19.70;99.90;;;;;;5071271;28;20039;-74
2023/09/19 12:23:23;;;;;;;7.97;1.90;;;19.70;99.90;;;;;;5071699;28;20446;-74
2023/09/19 12:25:53;;;;;;;9.15;1.98;;;19.70;99.90;;;;;;5070533;28;20687;-75
2023/09/19 12:28:22;;;;;;;8.18;1.92;;;19.70;99.90;;;;;;5068383;28;20097;-75
2023/09/19 12:30:48;;;;;;;8.57;2.05;;;19.70;99.90;;;;;;5070427;28;20021;-75
2023/09/19 12:33:19;;;;;;;8.63;2.08;;;19.60;99.90;;;;;;5069608;28;20133;-75
2023/09/19 12:35:45;;;;;;;10.43;1.95;;;19.60;99.90;;;;;;5070395;28;20027;-75
2023/09/19 12:38:23;;;;;;;8.98;2.30;;;19.50;99.90;;;;;;5069714;28;20009;-75
2023/09/19 12:40:51;;;;;;;8.23;1.77;;;19.50;99.90;;;;;;5070226;28;20067;-74
2023/09/19 12:43:17;;;;;;;6.88;1.75;;;19.50;99.90;;;;;;5069699;28;20372;-75
2023/09/19 12:45:44;;;;;;;11.05;2.15;;;19.50;99.90;;;;;;5069306;28;20012;-75
2023/09/19 12:48:29;;;;;;;12.93;1.70;;;19.50;99.90;;;;;;5069774;28;20017;-75
2023/09/19 12:51:12;;;;;;;14.30;2.30;;;19.50;99.90;;;;;;5059837;28;20024;-75
2023/09/19 12:53:44;;;;;;;12.07;2.30;;;19.60;99.90;;;;;;5069206;28;20028;-75
2023/09/19 12:56:12;;;;;;;7.32;2.05;;;19.50;99.90;;;;;;5070233;28;20028;-75